sensor_id;sensor_type;location;lat;lon;timestamp;P1;durP1;ratioP1;P2;durP2;ratioP2
12267;SDS011;6196;48.398;11.736;2023-11-21T00:00:01;6.03;;;2.30;;
12267;SDS011;6196;48.398;11.736;2023-11-21T00:02:30;6.70;;;2.60;;
12267;SDS011;6196;48.398;11.736;2023-11-21T00:04:57;5.87;;;2.40;;
12267;SDS011;6196;48.398;11.736;2023-11-21T00:07:23;4.57;;;2.33;;
12267;SDS011;6196;48.398;11.736;2023-11-21T00:09:51;3.50;;;2.10;;
12267;SDS011;6196;48.398;11.736;2023-11-21T00:12:18;8.63;;;2.27;;
12267;SDS011;6196;48.398;11.736;2023-11-21T00:14:45;2.90;;;1.50;;
12267;SDS011;6196;48.398;11.736;2023-11-21T00:17:11;6.03;;;1.90;;
12267;SDS011;6196;48.398;11.736;2023-11-21T00:19:39;6.50;;;2.00;;
12267;SDS011;6196;48.398;11.736;2023-11-21T00:22:05;3.83;;;1.50;;
12267;SDS011;6196;48.398;11.736;2023-11-21T00:24:33;5.93;;;1.60;;
12267;SDS011;6196;48.398;11.736;2023-11-21T00:27:01;3.70;;;1.33;;
12267;SDS011;6196;48.398;11.736;2023-11-21T00:29:28;6.00;;;1.47;;
12267;SDS011;6196;48.398;11.736;2023-11-21T00:31:54;3.63;;;1.30;;
12267;SDS011;6196;48.398;11.736;2023-11-21T00:34:21;3.90;;;1.40;;
12267;SDS011;6196;48.398;11.736;2023-11-21T00:36:48;5.03;;;1.70;;
12267;SDS011;6196;48.398;11.736;2023-11-21T00:39:15;4.40;;;1.53;;
12267;SDS011;6196;48.398;11.736;2023-11-21T00:41:42;4.13;;;1.33;;
12267;SDS011;6196;48.398;11.736;2023-11-21T00:44:11;3.43;;;1.30;;
12267;SDS011;6196;48.398;11.736;2023-11-21T00:46:37;4.87;;;1.20;;
12267;SDS011;6196;48.398;11.736;2023-11-21T00:49:04;3.63;;;1.20;;
12267;SDS011;6196;48.398;11.736;2023-11-21T00:51:31;2.63;;;1.30;;
12267;SDS011;6196;48.398;11.736;2023-11-21T00:53:59;2.67;;;1.23;;
12267;SDS011;6196;48.398;11.736;2023-11-21T00:56:26;4.30;;;1.37;;
12267;SDS011;6196;48.398;11.736;2023-11-21T00:58:53;6.73;;;1.10;;
12267;SDS011;6196;48.398;11.736;2023-11-21T01:01:21;2.77;;;1.10;;
12267;SDS011;6196;48.398;11.736;2023-11-21T01:03:49;4.97;;;1.03;;
12267;SDS011;6196;48.398;11.736;2023-11-21T01:06:16;4.67;;;1.17;;
12267;SDS011;6196;48.398;11.736;2023-11-21T01:08:43;4.30;;;1.40;;
12267;SDS011;6196;48.398;11.736;2023-11-21T01:11:11;5.73;;;1.10;;
12267;SDS011;6196;48.398;11.736;2023-11-21T01:13:39;4.20;;;0.93;;
12267;SDS011;6196;48.398;11.736;2023-11-21T01:16:06;4.97;;;1.13;;
12267;SDS011;6196;48.398;11.736;2023-11-21T01:18:34;4.40;;;1.10;;
12267;SDS011;6196;48.398;11.736;2023-11-21T01:21:02;6.03;;;1.03;;
12267;SDS011;6196;48.398;11.736;2023-11-21T01:23:29;4.27;;;1.13;;
12267;SDS011;6196;48.398;11.736;2023-11-21T01:25:56;4.23;;;1.03;;
12267;SDS011;6196;48.398;11.736;2023-11-21T01:28:24;4.07;;;1.10;;
12267;SDS011;6196;48.398;11.736;2023-11-21T01:30:51;3.27;;;0.87;;
12267;SDS011;6196;48.398;11.736;2023-11-21T01:33:18;3.60;;;0.90;;
12267;SDS011;6196;48.398;11.736;2023-11-21T01:35:45;4.13;;;0.80;;
12267;SDS011;6196;48.398;11.736;2023-11-21T01:38:12;3.60;;;1.10;;
12267;SDS011;6196;48.398;11.736;2023-11-21T01:40:41;6.30;;;1.10;;
12267;SDS011;6196;48.398;11.736;2023-11-21T01:43:08;2.90;;;0.90;;
12267;SDS011;6196;48.398;11.736;2023-11-21T01:45:35;2.90;;;1.00;;
12267;SDS011;6196;48.398;11.736;2023-11-21T01:48:02;3.47;;;1.00;;
12267;SDS011;6196;48.398;11.736;2023-11-21T01:50:30;3.00;;;0.90;;
12267;SDS011;6196;48.398;11.736;2023-11-21T01:52:57;2.03;;;0.97;;
12267;SDS011;6196;48.398;11.736;2023-11-21T01:55:24;4.00;;;1.10;;
12267;SDS011;6196;48.398;11.736;2023-11-21T01:57:54;4.77;;;1.00;;
12267;SDS011;6196;48.398;11.736;2023-11-21T02:00:25;2.13;;;0.90;;
12267;SDS011;6196;48.398;11.736;2023-11-21T02:02:54;2.67;;;1.20;;
12267;SDS011;6196;48.398;11.736;2023-11-21T02:05:23;1.87;;;0.90;;
12267;SDS011;6196;48.398;11.736;2023-11-21T02:07:49;4.30;;;1.00;;
12267;SDS011;6196;48.398;11.736;2023-11-21T02:10:19;4.97;;;1.00;;
12267;SDS011;6196;48.398;11.736;2023-11-21T02:12:50;3.90;;;1.10;;
12267;SDS011;6196;48.398;11.736;2023-11-21T02:15:17;4.00;;;1.00;;
12267;SDS011;6196;48.398;11.736;2023-11-21T02:17:49;5.27;;;0.90;;
12267;SDS011;6196;48.398;11.736;2023-11-21T02:20:20;1.77;;;1.27;;
12267;SDS011;6196;48.398;11.736;2023-11-21T02:25:24;4.67;;;1.10;;
12267;SDS011;6196;48.398;11.736;2023-11-21T02:28:00;3.63;;;1.13;;
12267;SDS011;6196;48.398;11.736;2023-11-21T02:30:29;3.87;;;0.90;;
12267;SDS011;6196;48.398;11.736;2023-11-21T02:32:59;4.10;;;0.70;;
12267;SDS011;6196;48.398;11.736;2023-11-21T02:35:28;2.00;;;0.70;;
12267;SDS011;6196;48.398;11.736;2023-11-21T02:37:58;2.07;;;0.90;;
12267;SDS011;6196;48.398;11.736;2023-11-21T02:40:25;2.57;;;0.80;;
12267;SDS011;6196;48.398;11.736;2023-11-21T02:42:53;1.83;;;0.80;;
12267;SDS011;6196;48.398;11.736;2023-11-21T02:45:20;2.13;;;0.70;;
12267;SDS011;6196;48.398;11.736;2023-11-21T02:47:48;2.17;;;0.80;;
12267;SDS011;6196;48.398;11.736;2023-11-21T02:50:16;1.60;;;0.67;;
12267;SDS011;6196;48.398;11.736;2023-11-21T02:52:46;3.87;;;0.60;;
12267;SDS011;6196;48.398;11.736;2023-11-21T02:55:13;1.67;;;0.63;;
12267;SDS011;6196;48.398;11.736;2023-11-21T02:57:41;1.97;;;0.80;;
12267;SDS011;6196;48.398;11.736;2023-11-21T03:00:08;2.43;;;0.60;;
12267;SDS011;6196;48.398;11.736;2023-11-21T03:02:39;1.30;;;0.50;;
12267;SDS011;6196;48.398;11.736;2023-11-21T03:05:07;2.57;;;0.60;;
12267;SDS011;6196;48.398;11.736;2023-11-21T03:07:37;1.93;;;0.70;;
12267;SDS011;6196;48.398;11.736;2023-11-21T03:10:05;2.77;;;0.70;;
12267;SDS011;6196;48.398;11.736;2023-11-21T03:12:36;2.47;;;0.70;;
12267;SDS011;6196;48.398;11.736;2023-11-21T03:15:07;3.33;;;0.80;;
12267;SDS011;6196;48.398;11.736;2023-11-21T03:17:35;1.67;;;0.70;;
12267;SDS011;6196;48.398;11.736;2023-11-21T03:20:02;3.07;;;0.87;;
12267;SDS011;6196;48.398;11.736;2023-11-21T03:22:31;2.80;;;0.63;;
12267;SDS011;6196;48.398;11.736;2023-11-21T03:24:58;1.17;;;0.67;;
12267;SDS011;6196;48.398;11.736;2023-11-21T03:27:25;3.17;;;1.13;;
12267;SDS011;6196;48.398;11.736;2023-11-21T03:29:52;3.60;;;0.70;;
12267;SDS011;6196;48.398;11.736;2023-11-21T03:32:21;1.43;;;0.60;;
12267;SDS011;6196;48.398;11.736;2023-11-21T03:34:54;2.90;;;0.80;;
12267;SDS011;6196;48.398;11.736;2023-11-21T03:37:25;4.17;;;0.87;;
12267;SDS011;6196;48.398;11.736;2023-11-21T03:39:54;3.10;;;0.73;;
12267;SDS011;6196;48.398;11.736;2023-11-21T03:42:23;2.43;;;0.87;;
12267;SDS011;6196;48.398;11.736;2023-11-21T03:44:51;1.90;;;0.70;;
12267;SDS011;6196;48.398;11.736;2023-11-21T03:47:18;2.97;;;0.83;;
12267;SDS011;6196;48.398;11.736;2023-11-21T03:49:46;3.57;;;1.23;;
12267;SDS011;6196;48.398;11.736;2023-11-21T03:52:13;1.50;;;0.80;;
12267;SDS011;6196;48.398;11.736;2023-11-21T03:54:40;3.33;;;1.03;;
12267;SDS011;6196;48.398;11.736;2023-11-21T03:57:07;3.40;;;0.67;;
12267;SDS011;6196;48.398;11.736;2023-11-21T03:59:35;2.33;;;1.00;;
12267;SDS011;6196;48.398;11.736;2023-11-21T04:02:02;3.43;;;1.03;;
12267;SDS011;6196;48.398;11.736;2023-11-21T04:04:29;3.10;;;0.83;;
12267;SDS011;6196;48.398;11.736;2023-11-21T04:06:56;2.93;;;0.83;;
12267;SDS011;6196;48.398;11.736;2023-11-21T04:09:23;2.00;;;0.80;;
12267;SDS011;6196;48.398;11.736;2023-11-21T04:11:51;2.30;;;0.90;;
12267;SDS011;6196;48.398;11.736;2023-11-21T04:14:19;2.37;;;0.77;;
12267;SDS011;6196;48.398;11.736;2023-11-21T04:16:46;1.77;;;0.80;;
12267;SDS011;6196;48.398;11.736;2023-11-21T04:19:13;1.53;;;0.90;;
12267;SDS011;6196;48.398;11.736;2023-11-21T04:21:41;3.87;;;1.30;;
12267;SDS011;6196;48.398;11.736;2023-11-21T04:24:08;4.33;;;1.00;;
12267;SDS011;6196;48.398;11.736;2023-11-21T04:26:35;3.37;;;0.90;;
12267;SDS011;6196;48.398;11.736;2023-11-21T04:29:03;1.37;;;0.77;;
12267;SDS011;6196;48.398;11.736;2023-11-21T04:31:30;1.60;;;0.63;;
12267;SDS011;6196;48.398;11.736;2023-11-21T04:33:58;2.30;;;0.80;;
12267;SDS011;6196;48.398;11.736;2023-11-21T04:36:25;2.77;;;0.93;;
12267;SDS011;6196;48.398;11.736;2023-11-21T04:38:52;2.00;;;0.50;;
12267;SDS011;6196;48.398;11.736;2023-11-21T04:41:19;1.97;;;0.70;;
12267;SDS011;6196;48.398;11.736;2023-11-21T04:43:46;2.70;;;0.90;;
12267;SDS011;6196;48.398;11.736;2023-11-21T04:46:13;3.53;;;1.23;;
12267;SDS011;6196;48.398;11.736;2023-11-21T04:48:40;2.77;;;1.13;;
12267;SDS011;6196;48.398;11.736;2023-11-21T04:51:07;2.77;;;0.70;;
12267;SDS011;6196;48.398;11.736;2023-11-21T04:53:34;5.20;;;1.20;;
12267;SDS011;6196;48.398;11.736;2023-11-21T04:56:02;1.73;;;0.80;;
12267;SDS011;6196;48.398;11.736;2023-11-21T04:58:29;1.73;;;0.90;;
12267;SDS011;6196;48.398;11.736;2023-11-21T05:00:57;2.03;;;0.90;;
12267;SDS011;6196;48.398;11.736;2023-11-21T05:03:24;2.23;;;1.00;;
12267;SDS011;6196;48.398;11.736;2023-11-21T05:05:52;1.03;;;0.80;;
12267;SDS011;6196;48.398;11.736;2023-11-21T05:08:19;2.83;;;0.90;;
12267;SDS011;6196;48.398;11.736;2023-11-21T05:10:48;2.03;;;0.90;;
12267;SDS011;6196;48.398;11.736;2023-11-21T05:13:16;4.17;;;1.03;;
12267;SDS011;6196;48.398;11.736;2023-11-21T05:15:44;1.83;;;0.73;;
12267;SDS011;6196;48.398;11.736;2023-11-21T05:18:11;3.90;;;1.00;;
12267;SDS011;6196;48.398;11.736;2023-11-21T05:20:40;2.10;;;1.17;;
12267;SDS011;6196;48.398;11.736;2023-11-21T05:23:08;2.90;;;1.10;;
12267;SDS011;6196;48.398;11.736;2023-11-21T05:25:35;2.20;;;1.10;;
12267;SDS011;6196;48.398;11.736;2023-11-21T05:28:06;2.87;;;1.10;;
12267;SDS011;6196;48.398;11.736;2023-11-21T05:30:33;3.77;;;1.00;;
12267;SDS011;6196;48.398;11.736;2023-11-21T05:33:00;3.17;;;0.90;;
12267;SDS011;6196;48.398;11.736;2023-11-21T05:35:27;4.03;;;1.10;;
12267;SDS011;6196;48.398;11.736;2023-11-21T05:37:54;3.10;;;1.30;;
12267;SDS011;6196;48.398;11.736;2023-11-21T05:40:21;3.37;;;1.20;;
12267;SDS011;6196;48.398;11.736;2023-11-21T05:42:49;2.13;;;1.00;;
12267;SDS011;6196;48.398;11.736;2023-11-21T05:45:17;3.77;;;1.47;;
12267;SDS011;6196;48.398;11.736;2023-11-21T05:47:45;4.07;;;1.40;;
12267;SDS011;6196;48.398;11.736;2023-11-21T05:50:14;3.60;;;1.10;;
12267;SDS011;6196;48.398;11.736;2023-11-21T05:52:44;3.93;;;1.10;;
12267;SDS011;6196;48.398;11.736;2023-11-21T05:55:13;3.33;;;0.90;;
12267;SDS011;6196;48.398;11.736;2023-11-21T05:57:41;2.50;;;1.03;;
12267;SDS011;6196;48.398;11.736;2023-11-21T06:00:11;2.93;;;1.00;;
12267;SDS011;6196;48.398;11.736;2023-11-21T06:02:44;1.57;;;0.80;;
12267;SDS011;6196;48.398;11.736;2023-11-21T06:05:12;2.17;;;0.80;;
12267;SDS011;6196;48.398;11.736;2023-11-21T06:07:39;2.67;;;1.07;;
12267;SDS011;6196;48.398;11.736;2023-11-21T06:10:07;3.33;;;1.30;;
12267;SDS011;6196;48.398;11.736;2023-11-21T06:12:37;2.93;;;1.00;;
12267;SDS011;6196;48.398;11.736;2023-11-21T06:15:06;2.50;;;1.00;;
12267;SDS011;6196;48.398;11.736;2023-11-21T06:17:35;3.33;;;0.90;;
12267;SDS011;6196;48.398;11.736;2023-11-21T06:20:03;2.57;;;1.10;;
12267;SDS011;6196;48.398;11.736;2023-11-21T06:22:36;2.70;;;0.90;;
12267;SDS011;6196;48.398;11.736;2023-11-21T06:25:04;4.30;;;1.33;;
12267;SDS011;6196;48.398;11.736;2023-11-21T06:27:34;2.57;;;1.07;;
12267;SDS011;6196;48.398;11.736;2023-11-21T06:30:08;1.27;;;0.90;;
12267;SDS011;6196;48.398;11.736;2023-11-21T06:32:36;4.87;;;1.00;;
12267;SDS011;6196;48.398;11.736;2023-11-21T06:35:04;2.30;;;0.80;;
12267;SDS011;6196;48.398;11.736;2023-11-21T06:37:32;2.80;;;0.90;;
12267;SDS011;6196;48.398;11.736;2023-11-21T06:40:00;3.80;;;0.90;;
12267;SDS011;6196;48.398;11.736;2023-11-21T06:42:27;1.80;;;0.90;;
12267;SDS011;6196;48.398;11.736;2023-11-21T06:44:55;3.20;;;1.10;;
12267;SDS011;6196;48.398;11.736;2023-11-21T06:47:24;1.43;;;1.00;;
12267;SDS011;6196;48.398;11.736;2023-11-21T06:49:52;1.87;;;1.00;;
12267;SDS011;6196;48.398;11.736;2023-11-21T06:52:19;4.00;;;1.30;;
12267;SDS011;6196;48.398;11.736;2023-11-21T06:54:47;2.93;;;1.70;;
12267;SDS011;6196;48.398;11.736;2023-11-21T06:57:16;3.43;;;1.40;;
12267;SDS011;6196;48.398;11.736;2023-11-21T06:59:43;4.90;;;1.57;;
12267;SDS011;6196;48.398;11.736;2023-11-21T07:02:10;3.23;;;1.53;;
12267;SDS011;6196;48.398;11.736;2023-11-21T07:04:38;2.60;;;1.43;;
12267;SDS011;6196;48.398;11.736;2023-11-21T07:07:05;2.43;;;1.23;;
12267;SDS011;6196;48.398;11.736;2023-11-21T07:09:35;4.37;;;1.20;;
12267;SDS011;6196;48.398;11.736;2023-11-21T07:12:02;1.97;;;0.93;;
12267;SDS011;6196;48.398;11.736;2023-11-21T07:14:32;2.90;;;1.27;;
12267;SDS011;6196;48.398;11.736;2023-11-21T07:17:03;4.30;;;1.30;;
12267;SDS011;6196;48.398;11.736;2023-11-21T07:19:30;5.97;;;1.57;;
12267;SDS011;6196;48.398;11.736;2023-11-21T07:21:57;2.47;;;1.10;;
12267;SDS011;6196;48.398;11.736;2023-11-21T07:24:23;2.23;;;0.90;;
12267;SDS011;6196;48.398;11.736;2023-11-21T07:26:52;4.40;;;1.10;;
12267;SDS011;6196;48.398;11.736;2023-11-21T07:29:23;3.63;;;0.97;;
12267;SDS011;6196;48.398;11.736;2023-11-21T07:31:52;1.70;;;0.80;;
12267;SDS011;6196;48.398;11.736;2023-11-21T07:34:20;2.83;;;1.30;;
12267;SDS011;6196;48.398;11.736;2023-11-21T07:36:47;1.90;;;1.13;;
12267;SDS011;6196;48.398;11.736;2023-11-21T07:39:14;2.90;;;0.87;;
12267;SDS011;6196;48.398;11.736;2023-11-21T07:41:42;2.87;;;0.83;;
12267;SDS011;6196;48.398;11.736;2023-11-21T07:44:16;1.77;;;0.80;;
12267;SDS011;6196;48.398;11.736;2023-11-21T07:46:47;1.70;;;0.70;;
12267;SDS011;6196;48.398;11.736;2023-11-21T07:49:16;1.50;;;0.80;;
12267;SDS011;6196;48.398;11.736;2023-11-21T07:51:46;1.57;;;0.70;;
12267;SDS011;6196;48.398;11.736;2023-11-21T07:54:13;1.90;;;0.60;;
12267;SDS011;6196;48.398;11.736;2023-11-21T07:56:42;2.43;;;0.90;;
12267;SDS011;6196;48.398;11.736;2023-11-21T07:59:08;2.10;;;0.70;;
12267;SDS011;6196;48.398;11.736;2023-11-21T08:01:35;3.07;;;0.70;;
12267;SDS011;6196;48.398;11.736;2023-11-21T08:04:02;1.73;;;0.70;;
12267;SDS011;6196;48.398;11.736;2023-11-21T08:06:31;0.80;;;0.57;;
12267;SDS011;6196;48.398;11.736;2023-11-21T08:08:59;1.80;;;0.73;;
12267;SDS011;6196;48.398;11.736;2023-11-21T08:11:26;1.83;;;0.70;;
12267;SDS011;6196;48.398;11.736;2023-11-21T08:13:55;1.30;;;0.47;;
12267;SDS011;6196;48.398;11.736;2023-11-21T08:16:23;1.13;;;0.53;;
12267;SDS011;6196;48.398;11.736;2023-11-21T08:18:50;1.80;;;0.73;;
12267;SDS011;6196;48.398;11.736;2023-11-21T08:21:17;1.60;;;0.63;;
12267;SDS011;6196;48.398;11.736;2023-11-21T08:23:45;1.40;;;0.60;;
12267;SDS011;6196;48.398;11.736;2023-11-21T08:26:15;1.13;;;0.63;;
12267;SDS011;6196;48.398;11.736;2023-11-21T08:28:44;1.33;;;0.70;;
12267;SDS011;6196;48.398;11.736;2023-11-21T08:31:11;1.10;;;0.70;;
12267;SDS011;6196;48.398;11.736;2023-11-21T08:33:41;1.23;;;0.63;;
12267;SDS011;6196;48.398;11.736;2023-11-21T08:36:09;2.57;;;0.90;;
12267;SDS011;6196;48.398;11.736;2023-11-21T08:38:38;1.90;;;0.63;;
12267;SDS011;6196;48.398;11.736;2023-11-21T08:41:07;1.00;;;0.67;;
12267;SDS011;6196;48.398;11.736;2023-11-21T08:43:34;2.07;;;0.60;;
12267;SDS011;6196;48.398;11.736;2023-11-21T08:46:02;1.20;;;0.70;;
12267;SDS011;6196;48.398;11.736;2023-11-21T08:48:29;1.27;;;0.70;;
12267;SDS011;6196;48.398;11.736;2023-11-21T08:50:56;1.53;;;0.70;;
12267;SDS011;6196;48.398;11.736;2023-11-21T08:53:23;1.20;;;0.70;;
12267;SDS011;6196;48.398;11.736;2023-11-21T08:55:52;1.33;;;0.50;;
12267;SDS011;6196;48.398;11.736;2023-11-21T08:58:20;1.17;;;0.40;;
12267;SDS011;6196;48.398;11.736;2023-11-21T09:00:47;0.90;;;0.50;;
12267;SDS011;6196;48.398;11.736;2023-11-21T09:03:14;0.77;;;0.57;;
12267;SDS011;6196;48.398;11.736;2023-11-21T09:05:41;1.53;;;0.50;;
12267;SDS011;6196;48.398;11.736;2023-11-21T09:08:08;1.60;;;0.40;;
12267;SDS011;6196;48.398;11.736;2023-11-21T09:10:35;0.70;;;0.50;;
12267;SDS011;6196;48.398;11.736;2023-11-21T09:13:03;1.03;;;0.70;;
12267;SDS011;6196;48.398;11.736;2023-11-21T09:15:30;0.70;;;0.40;;
12267;SDS011;6196;48.398;11.736;2023-11-21T09:17:57;1.90;;;0.50;;
12267;SDS011;6196;48.398;11.736;2023-11-21T09:20:24;0.97;;;0.53;;
12267;SDS011;6196;48.398;11.736;2023-11-21T09:22:51;0.83;;;0.50;;
12267;SDS011;6196;48.398;11.736;2023-11-21T09:25:18;0.77;;;0.50;;
12267;SDS011;6196;48.398;11.736;2023-11-21T09:27:46;1.80;;;0.80;;
12267;SDS011;6196;48.398;11.736;2023-11-21T09:30:13;1.43;;;0.60;;
12267;SDS011;6196;48.398;11.736;2023-11-21T09:32:40;1.47;;;0.60;;
12267;SDS011;6196;48.398;11.736;2023-11-21T09:35:11;1.10;;;0.60;;
12267;SDS011;6196;48.398;11.736;2023-11-21T09:37:40;2.03;;;0.70;;
12267;SDS011;6196;48.398;11.736;2023-11-21T09:40:09;2.17;;;0.90;;
12267;SDS011;6196;48.398;11.736;2023-11-21T09:42:40;1.50;;;0.67;;
12267;SDS011;6196;48.398;11.736;2023-11-21T09:45:27;2.10;;;0.70;;
12267;SDS011;6196;48.398;11.736;2023-11-21T09:47:55;1.83;;;0.60;;
12267;SDS011;6196;48.398;11.736;2023-11-21T09:50:23;2.50;;;0.60;;
12267;SDS011;6196;48.398;11.736;2023-11-21T09:55:43;1.13;;;0.70;;
12267;SDS011;6196;48.398;11.736;2023-11-21T09:58:13;1.87;;;0.90;;
12267;SDS011;6196;48.398;11.736;2023-11-21T10:00:41;1.77;;;0.60;;
12267;SDS011;6196;48.398;11.736;2023-11-21T10:03:12;3.33;;;0.80;;
12267;SDS011;6196;48.398;11.736;2023-11-21T10:05:44;2.00;;;0.57;;
12267;SDS011;6196;48.398;11.736;2023-11-21T10:08:12;0.90;;;0.80;;
12267;SDS011;6196;48.398;11.736;2023-11-21T10:10:44;1.53;;;0.90;;
12267;SDS011;6196;48.398;11.736;2023-11-21T10:13:14;2.13;;;0.90;;
12267;SDS011;6196;48.398;11.736;2023-11-21T10:15:44;2.40;;;0.93;;
12267;SDS011;6196;48.398;11.736;2023-11-21T10:18:16;3.77;;;2.10;;
12267;SDS011;6196;48.398;11.736;2023-11-21T10:20:44;3.20;;;1.03;;
12267;SDS011;6196;48.398;11.736;2023-11-21T10:23:19;2.00;;;0.77;;
12267;SDS011;6196;48.398;11.736;2023-11-21T10:25:48;1.57;;;0.90;;
12267;SDS011;6196;48.398;11.736;2023-11-21T10:28:17;1.40;;;1.03;;
12267;SDS011;6196;48.398;11.736;2023-11-21T10:30:44;1.83;;;1.00;;
12267;SDS011;6196;48.398;11.736;2023-11-21T10:33:11;1.37;;;0.90;;
12267;SDS011;6196;48.398;11.736;2023-11-21T10:35:38;1.63;;;0.93;;
12267;SDS011;6196;48.398;11.736;2023-11-21T10:38:21;2.97;;;1.00;;
12267;SDS011;6196;48.398;11.736;2023-11-21T10:40:50;1.13;;;0.70;;
12267;SDS011;6196;48.398;11.736;2023-11-21T10:43:18;0.73;;;0.70;;
12267;SDS011;6196;48.398;11.736;2023-11-21T10:45:45;2.03;;;1.13;;
12267;SDS011;6196;48.398;11.736;2023-11-21T10:48:13;4.20;;;1.10;;
12267;SDS011;6196;48.398;11.736;2023-11-21T10:50:46;2.33;;;1.20;;
12267;SDS011;6196;48.398;11.736;2023-11-21T10:53:14;2.47;;;0.90;;
12267;SDS011;6196;48.398;11.736;2023-11-21T10:55:42;1.23;;;0.83;;
12267;SDS011;6196;48.398;11.736;2023-11-21T10:58:11;4.33;;;3.93;;
12267;SDS011;6196;48.398;11.736;2023-11-21T11:00:41;2.07;;;1.13;;
12267;SDS011;6196;48.398;11.736;2023-11-21T11:03:12;2.20;;;0.90;;
12267;SDS011;6196;48.398;11.736;2023-11-21T11:05:46;1.00;;;0.90;;
12267;SDS011;6196;48.398;11.736;2023-11-21T11:08:19;1.37;;;0.80;;
12267;SDS011;6196;48.398;11.736;2023-11-21T11:10:54;1.90;;;0.80;;
12267;SDS011;6196;48.398;11.736;2023-11-21T11:13:22;1.63;;;1.10;;
12267;SDS011;6196;48.398;11.736;2023-11-21T11:15:50;1.10;;;0.70;;
12267;SDS011;6196;48.398;11.736;2023-11-21T11:18:17;2.07;;;0.97;;
12267;SDS011;6196;48.398;11.736;2023-11-21T11:20:47;1.47;;;0.80;;
12267;SDS011;6196;48.398;11.736;2023-11-21T11:34:56;2.87;;;1.00;;
12267;SDS011;6196;48.398;11.736;2023-11-21T11:37:30;1.00;;;0.90;;
12267;SDS011;6196;48.398;11.736;2023-11-21T11:39:58;1.50;;;0.90;;
12267;SDS011;6196;48.398;11.736;2023-11-21T11:42:26;1.43;;;1.20;;
12267;SDS011;6196;48.398;11.736;2023-11-21T11:44:53;1.00;;;0.80;;
12267;SDS011;6196;48.398;11.736;2023-11-21T11:47:27;1.10;;;0.77;;
12267;SDS011;6196;48.398;11.736;2023-11-21T11:50:10;2.47;;;0.93;;
12267;SDS011;6196;48.398;11.736;2023-11-21T11:52:50;1.60;;;0.97;;
12267;SDS011;6196;48.398;11.736;2023-11-21T11:55:20;2.20;;;0.90;;
12267;SDS011;6196;48.398;11.736;2023-11-21T11:57:49;1.20;;;1.00;;
12267;SDS011;6196;48.398;11.736;2023-11-21T12:02:57;2.13;;;1.00;;
12267;SDS011;6196;48.398;11.736;2023-11-21T12:05:30;2.10;;;1.10;;
12267;SDS011;6196;48.398;11.736;2023-11-21T12:08:00;1.43;;;0.87;;
12267;SDS011;6196;48.398;11.736;2023-11-21T12:10:30;1.20;;;0.83;;
12267;SDS011;6196;48.398;11.736;2023-11-21T12:13:03;1.93;;;1.07;;
12267;SDS011;6196;48.398;11.736;2023-11-21T12:15:34;1.53;;;1.10;;
12267;SDS011;6196;48.398;11.736;2023-11-21T12:18:07;2.63;;;1.17;;
12267;SDS011;6196;48.398;11.736;2023-11-21T12:20:34;2.43;;;1.43;;
12267;SDS011;6196;48.398;11.736;2023-11-21T12:23:13;1.60;;;1.20;;
12267;SDS011;6196;48.398;11.736;2023-11-21T12:25:41;1.30;;;0.90;;
12267;SDS011;6196;48.398;11.736;2023-11-21T12:28:09;1.37;;;1.00;;
12267;SDS011;6196;48.398;11.736;2023-11-21T12:30:37;1.27;;;0.90;;
12267;SDS011;6196;48.398;11.736;2023-11-21T12:33:05;2.63;;;1.20;;
12267;SDS011;6196;48.398;11.736;2023-11-21T12:35:35;2.33;;;1.40;;
12267;SDS011;6196;48.398;11.736;2023-11-21T12:38:03;2.23;;;1.10;;
12267;SDS011;6196;48.398;11.736;2023-11-21T12:40:31;1.47;;;0.97;;
12267;SDS011;6196;48.398;11.736;2023-11-21T12:42:59;2.00;;;1.03;;
12267;SDS011;6196;48.398;11.736;2023-11-21T12:45:28;1.13;;;0.80;;
12267;SDS011;6196;48.398;11.736;2023-11-21T12:48:00;2.90;;;0.73;;
12267;SDS011;6196;48.398;11.736;2023-11-21T12:50:38;2.43;;;0.80;;
12267;SDS011;6196;48.398;11.736;2023-11-21T12:53:06;1.30;;;1.07;;
12267;SDS011;6196;48.398;11.736;2023-11-21T12:55:36;2.47;;;1.20;;
12267;SDS011;6196;48.398;11.736;2023-11-21T12:58:08;3.10;;;1.37;;
12267;SDS011;6196;48.398;11.736;2023-11-21T13:00:38;3.57;;;1.40;;
12267;SDS011;6196;48.398;11.736;2023-11-21T13:03:10;2.83;;;1.40;;
12267;SDS011;6196;48.398;11.736;2023-11-21T13:05:42;1.60;;;1.30;;
12267;SDS011;6196;48.398;11.736;2023-11-21T13:08:14;1.90;;;1.20;;
12267;SDS011;6196;48.398;11.736;2023-11-21T13:10:46;1.67;;;1.10;;
12267;SDS011;6196;48.398;11.736;2023-11-21T13:13:21;1.73;;;0.80;;
12267;SDS011;6196;48.398;11.736;2023-11-21T13:15:52;4.87;;;1.07;;
12267;SDS011;6196;48.398;11.736;2023-11-21T13:18:23;1.07;;;0.97;;
12267;SDS011;6196;48.398;11.736;2023-11-21T13:20:57;2.00;;;0.70;;
12267;SDS011;6196;48.398;11.736;2023-11-21T13:23:26;1.23;;;0.80;;
12267;SDS011;6196;48.398;11.736;2023-11-21T13:25:53;2.30;;;1.07;;
12267;SDS011;6196;48.398;11.736;2023-11-21T13:28:31;2.33;;;1.13;;
12267;SDS011;6196;48.398;11.736;2023-11-21T13:31:00;2.83;;;1.10;;
12267;SDS011;6196;48.398;11.736;2023-11-21T13:33:36;2.60;;;1.40;;
12267;SDS011;6196;48.398;11.736;2023-11-21T13:36:09;1.53;;;1.20;;
12267;SDS011;6196;48.398;11.736;2023-11-21T13:38:37;2.90;;;1.40;;
12267;SDS011;6196;48.398;11.736;2023-11-21T13:41:09;2.10;;;1.40;;
12267;SDS011;6196;48.398;11.736;2023-11-21T13:43:36;1.73;;;1.30;;
12267;SDS011;6196;48.398;11.736;2023-11-21T13:46:04;2.77;;;1.60;;
12267;SDS011;6196;48.398;11.736;2023-11-21T13:48:43;3.53;;;1.77;;
12267;SDS011;6196;48.398;11.736;2023-11-21T13:51:17;1.87;;;1.50;;
12267;SDS011;6196;48.398;11.736;2023-11-21T13:53:44;2.23;;;1.50;;
12267;SDS011;6196;48.398;11.736;2023-11-21T13:56:16;3.00;;;1.67;;
12267;SDS011;6196;48.398;11.736;2023-11-21T13:58:47;2.90;;;1.93;;
12267;SDS011;6196;48.398;11.736;2023-11-21T14:01:18;2.17;;;1.67;;
12267;SDS011;6196;48.398;11.736;2023-11-21T14:06:29;3.50;;;1.83;;
12267;SDS011;6196;48.398;11.736;2023-11-21T14:09:02;3.07;;;1.73;;
12267;SDS011;6196;48.398;11.736;2023-11-21T14:11:31;3.47;;;2.30;;
12267;SDS011;6196;48.398;11.736;2023-11-21T14:14:08;3.10;;;2.30;;
12267;SDS011;6196;48.398;11.736;2023-11-21T14:16:36;4.30;;;2.37;;
12267;SDS011;6196;48.398;11.736;2023-11-21T14:19:03;2.30;;;2.07;;
12267;SDS011;6196;48.398;11.736;2023-11-21T14:21:42;4.37;;;2.07;;
12267;SDS011;6196;48.398;11.736;2023-11-21T14:24:12;3.97;;;1.90;;
12267;SDS011;6196;48.398;11.736;2023-11-21T14:26:41;2.40;;;1.40;;
12267;SDS011;6196;48.398;11.736;2023-11-21T14:29:12;1.07;;;0.97;;
12267;SDS011;6196;48.398;11.736;2023-11-21T14:31:43;2.73;;;0.80;;
12267;SDS011;6196;48.398;11.736;2023-11-21T14:34:11;0.80;;;0.70;;
12267;SDS011;6196;48.398;11.736;2023-11-21T14:36:39;1.17;;;0.90;;
12267;SDS011;6196;48.398;11.736;2023-11-21T14:39:07;1.57;;;1.10;;
12267;SDS011;6196;48.398;11.736;2023-11-21T14:41:37;1.57;;;0.87;;
12267;SDS011;6196;48.398;11.736;2023-11-21T14:44:05;0.83;;;0.67;;
12267;SDS011;6196;48.398;11.736;2023-11-21T14:46:33;0.80;;;0.60;;
12267;SDS011;6196;48.398;11.736;2023-11-21T14:49:03;0.77;;;0.60;;
12267;SDS011;6196;48.398;11.736;2023-11-21T14:51:50;0.60;;;0.60;;
12267;SDS011;6196;48.398;11.736;2023-11-21T14:54:28;1.43;;;0.57;;
12267;SDS011;6196;48.398;11.736;2023-11-21T14:57:12;0.90;;;0.70;;
12267;SDS011;6196;48.398;11.736;2023-11-21T14:59:48;0.90;;;0.60;;
12267;SDS011;6196;48.398;11.736;2023-11-21T15:02:19;1.37;;;0.93;;
12267;SDS011;6196;48.398;11.736;2023-11-21T15:05:10;1.07;;;0.80;;
12267;SDS011;6196;48.398;11.736;2023-11-21T15:07:43;1.67;;;1.00;;
12267;SDS011;6196;48.398;11.736;2023-11-21T15:10:12;2.00;;;1.37;;
12267;SDS011;6196;48.398;11.736;2023-11-21T15:12:42;2.83;;;1.30;;
12267;SDS011;6196;48.398;11.736;2023-11-21T15:15:10;1.63;;;1.50;;
12267;SDS011;6196;48.398;11.736;2023-11-21T15:17:38;1.80;;;1.70;;
12267;SDS011;6196;48.398;11.736;2023-11-21T15:20:09;1.97;;;1.73;;